sensor_id;sensor_type;location;lat;lon;timestamp;P1;durP1;ratioP1;P2;durP2;ratioP2
13386;SDS011;6763;48.524;9.044;2023-11-21T00:01:39;1.13;;;0.93;;
13386;SDS011;6763;48.524;9.044;2023-11-21T00:04:05;2.00;;;1.00;;
13386;SDS011;6763;48.524;9.044;2023-11-21T00:06:32;1.70;;;1.10;;
13386;SDS011;6763;48.524;9.044;2023-11-21T00:08:57;4.20;;;1.20;;
13386;SDS011;6763;48.524;9.044;2023-11-21T00:11:23;1.77;;;1.13;;
13386;SDS011;6763;48.524;9.044;2023-11-21T00:13:50;1.10;;;1.00;;
13386;SDS011;6763;48.524;9.044;2023-11-21T00:16:15;2.63;;;1.30;;
13386;SDS011;6763;48.524;9.044;2023-11-21T00:18:40;0.97;;;0.90;;
13386;SDS011;6763;48.524;9.044;2023-11-21T00:21:08;1.27;;;1.10;;
13386;SDS011;6763;48.524;9.044;2023-11-21T00:23:34;2.27;;;0.90;;
13386;SDS011;6763;48.524;9.044;2023-11-21T00:25:59;1.83;;;1.07;;
13386;SDS011;6763;48.524;9.044;2023-11-21T00:28:25;1.97;;;0.87;;
13386;SDS011;6763;48.524;9.044;2023-11-21T00:30:51;1.10;;;0.90;;
13386;SDS011;6763;48.524;9.044;2023-11-21T00:33:16;1.07;;;0.90;;
13386;SDS011;6763;48.524;9.044;2023-11-21T00:35:41;1.40;;;1.10;;
13386;SDS011;6763;48.524;9.044;2023-11-21T00:38:07;1.30;;;1.10;;
13386;SDS011;6763;48.524;9.044;2023-11-21T00:40:33;3.07;;;1.40;;
13386;SDS011;6763;48.524;9.044;2023-11-21T00:42:58;1.90;;;1.20;;
13386;SDS011;6763;48.524;9.044;2023-11-21T00:45:24;1.53;;;1.13;;
13386;SDS011;6763;48.524;9.044;2023-11-21T00:47:49;2.70;;;1.40;;
13386;SDS011;6763;48.524;9.044;2023-11-21T00:50:15;2.07;;;1.40;;
13386;SDS011;6763;48.524;9.044;2023-11-21T00:52:40;1.27;;;1.03;;
13386;SDS011;6763;48.524;9.044;2023-11-21T00:55:06;2.93;;;1.00;;
13386;SDS011;6763;48.524;9.044;2023-11-21T00:57:32;1.83;;;1.10;;
13386;SDS011;6763;48.524;9.044;2023-11-21T00:59:58;5.10;;;1.33;;
13386;SDS011;6763;48.524;9.044;2023-11-21T01:02:23;2.97;;;1.10;;
13386;SDS011;6763;48.524;9.044;2023-11-21T01:04:50;2.37;;;0.87;;
13386;SDS011;6763;48.524;9.044;2023-11-21T01:07:15;1.40;;;1.10;;
13386;SDS011;6763;48.524;9.044;2023-11-21T01:09:41;2.43;;;1.10;;
13386;SDS011;6763;48.524;9.044;2023-11-21T01:12:06;3.03;;;1.40;;
13386;SDS011;6763;48.524;9.044;2023-11-21T01:14:31;1.10;;;0.90;;
13386;SDS011;6763;48.524;9.044;2023-11-21T01:16:57;2.47;;;1.23;;
13386;SDS011;6763;48.524;9.044;2023-11-21T01:19:22;1.33;;;1.00;;
13386;SDS011;6763;48.524;9.044;2023-11-21T01:21:47;1.67;;;1.13;;
13386;SDS011;6763;48.524;9.044;2023-11-21T01:24:13;1.33;;;0.83;;
13386;SDS011;6763;48.524;9.044;2023-11-21T01:26:38;1.70;;;0.80;;
13386;SDS011;6763;48.524;9.044;2023-11-21T01:29:03;1.43;;;1.07;;
13386;SDS011;6763;48.524;9.044;2023-11-21T01:31:29;0.60;;;0.60;;
13386;SDS011;6763;48.524;9.044;2023-11-21T01:33:55;1.83;;;0.83;;
13386;SDS011;6763;48.524;9.044;2023-11-21T01:36:21;2.27;;;1.10;;
13386;SDS011;6763;48.524;9.044;2023-11-21T01:38:46;1.87;;;1.00;;
13386;SDS011;6763;48.524;9.044;2023-11-21T01:41:13;1.50;;;1.00;;
13386;SDS011;6763;48.524;9.044;2023-11-21T01:43:38;2.17;;;0.80;;
13386;SDS011;6763;48.524;9.044;2023-11-21T01:46:04;2.40;;;1.20;;
13386;SDS011;6763;48.524;9.044;2023-11-21T01:48:31;1.00;;;0.90;;
13386;SDS011;6763;48.524;9.044;2023-11-21T01:50:56;1.17;;;0.90;;
13386;SDS011;6763;48.524;9.044;2023-11-21T01:53:23;1.33;;;0.90;;
13386;SDS011;6763;48.524;9.044;2023-11-21T01:55:50;0.90;;;0.80;;
13386;SDS011;6763;48.524;9.044;2023-11-21T01:58:16;1.27;;;1.00;;
13386;SDS011;6763;48.524;9.044;2023-11-21T02:00:42;1.27;;;1.10;;
13386;SDS011;6763;48.524;9.044;2023-11-21T02:03:08;1.37;;;0.97;;
13386;SDS011;6763;48.524;9.044;2023-11-21T02:05:35;1.87;;;0.97;;
13386;SDS011;6763;48.524;9.044;2023-11-21T02:08:01;1.73;;;1.10;;
13386;SDS011;6763;48.524;9.044;2023-11-21T02:10:27;1.20;;;0.90;;
13386;SDS011;6763;48.524;9.044;2023-11-21T02:12:54;1.27;;;0.90;;
13386;SDS011;6763;48.524;9.044;2023-11-21T02:15:21;0.70;;;0.70;;
13386;SDS011;6763;48.524;9.044;2023-11-21T02:17:48;3.23;;;0.80;;
13386;SDS011;6763;48.524;9.044;2023-11-21T02:20:17;0.67;;;0.67;;
13386;SDS011;6763;48.524;9.044;2023-11-21T02:22:43;1.83;;;0.90;;
13386;SDS011;6763;48.524;9.044;2023-11-21T02:25:26;0.80;;;0.80;;
13386;SDS011;6763;48.524;9.044;2023-11-21T02:27:54;1.37;;;0.80;;
13386;SDS011;6763;48.524;9.044;2023-11-21T02:30:21;2.10;;;0.90;;
13386;SDS011;6763;48.524;9.044;2023-11-21T02:32:50;1.33;;;0.80;;
13386;SDS011;6763;48.524;9.044;2023-11-21T02:35:17;0.97;;;0.60;;
13386;SDS011;6763;48.524;9.044;2023-11-21T02:37:43;1.40;;;0.70;;
13386;SDS011;6763;48.524;9.044;2023-11-21T02:40:09;1.00;;;0.90;;
13386;SDS011;6763;48.524;9.044;2023-11-21T02:42:37;0.83;;;0.80;;
13386;SDS011;6763;48.524;9.044;2023-11-21T02:45:03;1.80;;;0.80;;
13386;SDS011;6763;48.524;9.044;2023-11-21T02:47:29;0.70;;;0.70;;
13386;SDS011;6763;48.524;9.044;2023-11-21T02:49:54;0.73;;;0.73;;
13386;SDS011;6763;48.524;9.044;2023-11-21T02:52:19;0.90;;;0.80;;
13386;SDS011;6763;48.524;9.044;2023-11-21T02:54:45;2.33;;;1.10;;
13386;SDS011;6763;48.524;9.044;2023-11-21T02:57:10;3.67;;;1.03;;
13386;SDS011;6763;48.524;9.044;2023-11-21T02:59:36;2.80;;;1.00;;
13386;SDS011;6763;48.524;9.044;2023-11-21T03:02:01;0.80;;;0.80;;
13386;SDS011;6763;48.524;9.044;2023-11-21T03:04:26;3.50;;;0.80;;
13386;SDS011;6763;48.524;9.044;2023-11-21T03:06:52;1.47;;;0.70;;
13386;SDS011;6763;48.524;9.044;2023-11-21T03:09:17;0.87;;;0.70;;
13386;SDS011;6763;48.524;9.044;2023-11-21T03:11:42;1.07;;;0.77;;
13386;SDS011;6763;48.524;9.044;2023-11-21T03:14:08;0.50;;;0.50;;
13386;SDS011;6763;48.524;9.044;2023-11-21T03:16:33;0.70;;;0.70;;
13386;SDS011;6763;48.524;9.044;2023-11-21T03:18:59;2.97;;;0.90;;
13386;SDS011;6763;48.524;9.044;2023-11-21T03:21:24;1.20;;;0.50;;
13386;SDS011;6763;48.524;9.044;2023-11-21T03:23:51;1.07;;;0.70;;
13386;SDS011;6763;48.524;9.044;2023-11-21T03:26:17;1.63;;;0.70;;
13386;SDS011;6763;48.524;9.044;2023-11-21T03:28:42;1.90;;;0.67;;
13386;SDS011;6763;48.524;9.044;2023-11-21T03:31:07;0.50;;;0.50;;
13386;SDS011;6763;48.524;9.044;2023-11-21T03:33:34;0.53;;;0.53;;
13386;SDS011;6763;48.524;9.044;2023-11-21T03:36:00;0.60;;;0.50;;
13386;SDS011;6763;48.524;9.044;2023-11-21T03:38:25;0.50;;;0.50;;
13386;SDS011;6763;48.524;9.044;2023-11-21T03:40:51;0.40;;;0.40;;
13386;SDS011;6763;48.524;9.044;2023-11-21T03:43:16;0.50;;;0.50;;
13386;SDS011;6763;48.524;9.044;2023-11-21T03:45:41;2.57;;;0.50;;
13386;SDS011;6763;48.524;9.044;2023-11-21T03:48:07;0.53;;;0.50;;
13386;SDS011;6763;48.524;9.044;2023-11-21T03:50:33;0.80;;;0.80;;
13386;SDS011;6763;48.524;9.044;2023-11-21T03:52:59;0.50;;;0.50;;
13386;SDS011;6763;48.524;9.044;2023-11-21T03:55:24;0.40;;;0.40;;
13386;SDS011;6763;48.524;9.044;2023-11-21T03:57:50;0.40;;;0.40;;
13386;SDS011;6763;48.524;9.044;2023-11-21T04:00:16;0.80;;;0.50;;
13386;SDS011;6763;48.524;9.044;2023-11-21T04:02:42;0.43;;;0.43;;
13386;SDS011;6763;48.524;9.044;2023-11-21T04:05:07;0.33;;;0.33;;
13386;SDS011;6763;48.524;9.044;2023-11-21T04:07:34;0.53;;;0.53;;
13386;SDS011;6763;48.524;9.044;2023-11-21T04:10:00;0.50;;;0.50;;
13386;SDS011;6763;48.524;9.044;2023-11-21T04:12:25;1.03;;;0.40;;
13386;SDS011;6763;48.524;9.044;2023-11-21T04:14:51;0.50;;;0.50;;
13386;SDS011;6763;48.524;9.044;2023-11-21T04:17:19;1.17;;;0.50;;
13386;SDS011;6763;48.524;9.044;2023-11-21T04:19:45;0.30;;;0.30;;
13386;SDS011;6763;48.524;9.044;2023-11-21T04:22:11;0.60;;;0.60;;
13386;SDS011;6763;48.524;9.044;2023-11-21T04:24:36;0.70;;;0.60;;
13386;SDS011;6763;48.524;9.044;2023-11-21T04:27:02;0.67;;;0.60;;
13386;SDS011;6763;48.524;9.044;2023-11-21T04:29:28;1.80;;;0.80;;
13386;SDS011;6763;48.524;9.044;2023-11-21T04:31:53;2.00;;;0.73;;
13386;SDS011;6763;48.524;9.044;2023-11-21T04:34:19;0.67;;;0.60;;
13386;SDS011;6763;48.524;9.044;2023-11-21T04:36:44;0.60;;;0.60;;
13386;SDS011;6763;48.524;9.044;2023-11-21T04:39:09;0.77;;;0.77;;
13386;SDS011;6763;48.524;9.044;2023-11-21T04:41:35;1.27;;;0.70;;
13386;SDS011;6763;48.524;9.044;2023-11-21T04:44:01;0.80;;;0.70;;
13386;SDS011;6763;48.524;9.044;2023-11-21T04:46:26;0.73;;;0.63;;
13386;SDS011;6763;48.524;9.044;2023-11-21T04:48:52;1.97;;;0.90;;
13386;SDS011;6763;48.524;9.044;2023-11-21T04:51:17;1.50;;;0.73;;
13386;SDS011;6763;48.524;9.044;2023-11-21T04:53:42;0.83;;;0.60;;
13386;SDS011;6763;48.524;9.044;2023-11-21T04:56:08;1.30;;;0.60;;
13386;SDS011;6763;48.524;9.044;2023-11-21T04:58:33;0.43;;;0.43;;
13386;SDS011;6763;48.524;9.044;2023-11-21T05:01:00;0.67;;;0.50;;
13386;SDS011;6763;48.524;9.044;2023-11-21T05:03:25;0.50;;;0.50;;
13386;SDS011;6763;48.524;9.044;2023-11-21T05:05:51;0.90;;;0.77;;
13386;SDS011;6763;48.524;9.044;2023-11-21T05:08:16;0.60;;;0.60;;
13386;SDS011;6763;48.524;9.044;2023-11-21T05:10:42;1.00;;;0.60;;
13386;SDS011;6763;48.524;9.044;2023-11-21T05:13:07;0.70;;;0.63;;
13386;SDS011;6763;48.524;9.044;2023-11-21T05:15:35;1.33;;;0.70;;
13386;SDS011;6763;48.524;9.044;2023-11-21T05:18:02;0.50;;;0.50;;
13386;SDS011;6763;48.524;9.044;2023-11-21T05:20:28;0.50;;;0.50;;
13386;SDS011;6763;48.524;9.044;2023-11-21T05:22:53;0.70;;;0.70;;
13386;SDS011;6763;48.524;9.044;2023-11-21T05:25:18;0.73;;;0.73;;
13386;SDS011;6763;48.524;9.044;2023-11-21T05:27:44;0.70;;;0.60;;
13386;SDS011;6763;48.524;9.044;2023-11-21T05:30:13;0.63;;;0.60;;
13386;SDS011;6763;48.524;9.044;2023-11-21T05:32:39;0.60;;;0.60;;
13386;SDS011;6763;48.524;9.044;2023-11-21T05:35:08;0.60;;;0.60;;
13386;SDS011;6763;48.524;9.044;2023-11-21T05:37:43;0.70;;;0.70;;
13386;SDS011;6763;48.524;9.044;2023-11-21T05:40:09;0.60;;;0.60;;
13386;SDS011;6763;48.524;9.044;2023-11-21T05:42:35;0.53;;;0.53;;
13386;SDS011;6763;48.524;9.044;2023-11-21T05:45:00;0.53;;;0.53;;
13386;SDS011;6763;48.524;9.044;2023-11-21T05:47:40;0.63;;;0.63;;
13386;SDS011;6763;48.524;9.044;2023-11-21T05:50:10;0.70;;;0.70;;
13386;SDS011;6763;48.524;9.044;2023-11-21T05:52:39;0.70;;;0.60;;
13386;SDS011;6763;48.524;9.044;2023-11-21T05:55:08;0.57;;;0.57;;
13386;SDS011;6763;48.524;9.044;2023-11-21T05:57:34;2.57;;;0.70;;
13386;SDS011;6763;48.524;9.044;2023-11-21T06:02:36;0.80;;;0.80;;
13386;SDS011;6763;48.524;9.044;2023-11-21T06:05:01;0.73;;;0.70;;
13386;SDS011;6763;48.524;9.044;2023-11-21T06:07:29;0.80;;;0.80;;
13386;SDS011;6763;48.524;9.044;2023-11-21T06:09:54;0.97;;;0.70;;
13386;SDS011;6763;48.524;9.044;2023-11-21T06:12:19;1.20;;;0.57;;
13386;SDS011;6763;48.524;9.044;2023-11-21T06:14:45;0.73;;;0.60;;
13386;SDS011;6763;48.524;9.044;2023-11-21T06:17:11;0.70;;;0.70;;
13386;SDS011;6763;48.524;9.044;2023-11-21T06:19:36;0.70;;;0.70;;
13386;SDS011;6763;48.524;9.044;2023-11-21T06:22:01;0.67;;;0.67;;
13386;SDS011;6763;48.524;9.044;2023-11-21T06:24:27;1.57;;;0.90;;
13386;SDS011;6763;48.524;9.044;2023-11-21T06:26:53;0.83;;;0.83;;
13386;SDS011;6763;48.524;9.044;2023-11-21T06:29:18;0.60;;;0.60;;
13386;SDS011;6763;48.524;9.044;2023-11-21T06:31:43;1.57;;;1.00;;
13386;SDS011;6763;48.524;9.044;2023-11-21T06:34:09;1.27;;;0.70;;
13386;SDS011;6763;48.524;9.044;2023-11-21T06:36:35;0.70;;;0.60;;
13386;SDS011;6763;48.524;9.044;2023-11-21T06:39:00;0.80;;;0.80;;
13386;SDS011;6763;48.524;9.044;2023-11-21T06:41:25;1.87;;;0.80;;
13386;SDS011;6763;48.524;9.044;2023-11-21T06:43:51;1.10;;;0.60;;
13386;SDS011;6763;48.524;9.044;2023-11-21T06:46:16;2.40;;;0.80;;
13386;SDS011;6763;48.524;9.044;2023-11-21T06:48:42;1.93;;;0.70;;
13386;SDS011;6763;48.524;9.044;2023-11-21T06:51:08;0.77;;;0.70;;
13386;SDS011;6763;48.524;9.044;2023-11-21T06:53:33;0.70;;;0.70;;
13386;SDS011;6763;48.524;9.044;2023-11-21T06:55:58;3.17;;;0.90;;
13386;SDS011;6763;48.524;9.044;2023-11-21T06:58:24;0.80;;;0.60;;
13386;SDS011;6763;48.524;9.044;2023-11-21T07:00:49;0.93;;;0.70;;
13386;SDS011;6763;48.524;9.044;2023-11-21T07:03:15;1.00;;;0.90;;
13386;SDS011;6763;48.524;9.044;2023-11-21T07:05:40;1.17;;;0.97;;
13386;SDS011;6763;48.524;9.044;2023-11-21T07:08:06;1.10;;;0.93;;
13386;SDS011;6763;48.524;9.044;2023-11-21T07:10:32;0.83;;;0.83;;
13386;SDS011;6763;48.524;9.044;2023-11-21T07:12:58;1.47;;;1.10;;
13386;SDS011;6763;48.524;9.044;2023-11-21T07:15:23;1.20;;;0.80;;
13386;SDS011;6763;48.524;9.044;2023-11-21T07:17:50;1.53;;;1.30;;
13386;SDS011;6763;48.524;9.044;2023-11-21T07:20:17;2.50;;;1.53;;
13386;SDS011;6763;48.524;9.044;2023-11-21T07:22:42;4.40;;;2.30;;
13386;SDS011;6763;48.524;9.044;2023-11-21T07:25:08;4.87;;;1.77;;
13386;SDS011;6763;48.524;9.044;2023-11-21T07:27:34;2.73;;;1.60;;
13386;SDS011;6763;48.524;9.044;2023-11-21T07:30:01;2.00;;;1.53;;
13386;SDS011;6763;48.524;9.044;2023-11-21T07:32:29;1.77;;;1.20;;
13386;SDS011;6763;48.524;9.044;2023-11-21T07:34:55;1.40;;;0.90;;
13386;SDS011;6763;48.524;9.044;2023-11-21T07:37:22;2.80;;;1.10;;
13386;SDS011;6763;48.524;9.044;2023-11-21T07:39:47;1.30;;;0.93;;
13386;SDS011;6763;48.524;9.044;2023-11-21T07:42:13;1.20;;;1.10;;
13386;SDS011;6763;48.524;9.044;2023-11-21T07:44:38;1.10;;;0.80;;
13386;SDS011;6763;48.524;9.044;2023-11-21T07:47:04;0.87;;;0.83;;
13386;SDS011;6763;48.524;9.044;2023-11-21T07:49:29;1.10;;;0.70;;
13386;SDS011;6763;48.524;9.044;2023-11-21T07:51:55;1.10;;;1.00;;
13386;SDS011;6763;48.524;9.044;2023-11-21T07:54:21;1.03;;;0.93;;
13386;SDS011;6763;48.524;9.044;2023-11-21T07:56:46;1.00;;;0.90;;
13386;SDS011;6763;48.524;9.044;2023-11-21T07:59:12;0.87;;;0.87;;
13386;SDS011;6763;48.524;9.044;2023-11-21T08:01:39;1.70;;;1.10;;
13386;SDS011;6763;48.524;9.044;2023-11-21T08:04:05;1.00;;;0.83;;
13386;SDS011;6763;48.524;9.044;2023-11-21T08:06:31;0.90;;;0.80;;
13386;SDS011;6763;48.524;9.044;2023-11-21T08:08:58;0.93;;;0.77;;
13386;SDS011;6763;48.524;9.044;2023-11-21T08:11:23;1.00;;;0.90;;
13386;SDS011;6763;48.524;9.044;2023-11-21T08:13:49;1.17;;;0.70;;
13386;SDS011;6763;48.524;9.044;2023-11-21T08:16:14;1.13;;;0.80;;
13386;SDS011;6763;48.524;9.044;2023-11-21T08:18:40;1.00;;;0.80;;
13386;SDS011;6763;48.524;9.044;2023-11-21T08:21:06;1.37;;;0.70;;
13386;SDS011;6763;48.524;9.044;2023-11-21T08:23:32;0.70;;;0.70;;
13386;SDS011;6763;48.524;9.044;2023-11-21T08:25:59;1.30;;;0.80;;
13386;SDS011;6763;48.524;9.044;2023-11-21T08:28:24;1.30;;;0.90;;
13386;SDS011;6763;48.524;9.044;2023-11-21T08:30:51;0.60;;;0.60;;
13386;SDS011;6763;48.524;9.044;2023-11-21T08:33:17;1.10;;;0.90;;
13386;SDS011;6763;48.524;9.044;2023-11-21T08:35:44;2.60;;;1.10;;
13386;SDS011;6763;48.524;9.044;2023-11-21T08:38:10;0.83;;;0.70;;
13386;SDS011;6763;48.524;9.044;2023-11-21T08:40:37;0.80;;;0.77;;
13386;SDS011;6763;48.524;9.044;2023-11-21T08:43:02;0.93;;;0.70;;
13386;SDS011;6763;48.524;9.044;2023-11-21T08:45:29;1.53;;;0.60;;
13386;SDS011;6763;48.524;9.044;2023-11-21T08:47:55;1.40;;;0.63;;
13386;SDS011;6763;48.524;9.044;2023-11-21T08:50:21;1.27;;;0.80;;
13386;SDS011;6763;48.524;9.044;2023-11-21T08:52:47;1.07;;;0.80;;
13386;SDS011;6763;48.524;9.044;2023-11-21T08:55:13;1.20;;;0.80;;
13386;SDS011;6763;48.524;9.044;2023-11-21T08:57:39;0.87;;;0.60;;
13386;SDS011;6763;48.524;9.044;2023-11-21T09:00:08;0.87;;;0.87;;
13386;SDS011;6763;48.524;9.044;2023-11-21T09:02:40;2.40;;;0.80;;
13386;SDS011;6763;48.524;9.044;2023-11-21T09:05:10;1.20;;;0.70;;
13386;SDS011;6763;48.524;9.044;2023-11-21T09:07:36;0.60;;;0.60;;
13386;SDS011;6763;48.524;9.044;2023-11-21T09:10:04;0.73;;;0.73;;
13386;SDS011;6763;48.524;9.044;2023-11-21T09:12:32;0.67;;;0.67;;
13386;SDS011;6763;48.524;9.044;2023-11-21T09:15:00;0.63;;;0.60;;
13386;SDS011;6763;48.524;9.044;2023-11-21T09:17:29;0.80;;;0.60;;
13386;SDS011;6763;48.524;9.044;2023-11-21T09:19:55;0.60;;;0.60;;
13386;SDS011;6763;48.524;9.044;2023-11-21T09:22:22;1.00;;;0.70;;
13386;SDS011;6763;48.524;9.044;2023-11-21T09:24:49;1.53;;;0.80;;
13386;SDS011;6763;48.524;9.044;2023-11-21T09:27:15;1.13;;;0.80;;
13386;SDS011;6763;48.524;9.044;2023-11-21T09:29:42;0.77;;;0.70;;
13386;SDS011;6763;48.524;9.044;2023-11-21T09:32:08;0.67;;;0.60;;
13386;SDS011;6763;48.524;9.044;2023-11-21T09:34:37;1.20;;;0.60;;
13386;SDS011;6763;48.524;9.044;2023-11-21T09:37:04;0.63;;;0.63;;
13386;SDS011;6763;48.524;9.044;2023-11-21T09:39:31;0.90;;;0.70;;
13386;SDS011;6763;48.524;9.044;2023-11-21T09:41:57;5.33;;;2.63;;
13386;SDS011;6763;48.524;9.044;2023-11-21T09:44:40;1.57;;;0.90;;
13386;SDS011;6763;48.524;9.044;2023-11-21T09:47:10;2.30;;;0.80;;
13386;SDS011;6763;48.524;9.044;2023-11-21T09:49:41;0.83;;;0.70;;
13386;SDS011;6763;48.524;9.044;2023-11-21T09:52:11;0.80;;;0.60;;
13386;SDS011;6763;48.524;9.044;2023-11-21T09:54:47;1.03;;;0.63;;
13386;SDS011;6763;48.524;9.044;2023-11-21T09:57:15;0.50;;;0.50;;
13386;SDS011;6763;48.524;9.044;2023-11-21T09:59:40;0.60;;;0.57;;
13386;SDS011;6763;48.524;9.044;2023-11-21T10:02:07;1.03;;;0.90;;
13386;SDS011;6763;48.524;9.044;2023-11-21T10:04:37;1.53;;;0.50;;
13386;SDS011;6763;48.524;9.044;2023-11-21T10:07:03;0.57;;;0.57;;
13386;SDS011;6763;48.524;9.044;2023-11-21T10:09:33;0.63;;;0.63;;
13386;SDS011;6763;48.524;9.044;2023-11-21T10:12:00;0.63;;;0.50;;
13386;SDS011;6763;48.524;9.044;2023-11-21T10:14:28;0.70;;;0.50;;
13386;SDS011;6763;48.524;9.044;2023-11-21T10:16:54;0.63;;;0.60;;
13386;SDS011;6763;48.524;9.044;2023-11-21T10:19:21;0.60;;;0.60;;
13386;SDS011;6763;48.524;9.044;2023-11-21T10:21:48;0.60;;;0.60;;
13386;SDS011;6763;48.524;9.044;2023-11-21T10:24:15;0.83;;;0.60;;
13386;SDS011;6763;48.524;9.044;2023-11-21T10:26:40;1.50;;;0.73;;
13386;SDS011;6763;48.524;9.044;2023-11-21T10:29:06;0.53;;;0.53;;
13386;SDS011;6763;48.524;9.044;2023-11-21T10:31:32;0.50;;;0.50;;
13386;SDS011;6763;48.524;9.044;2023-11-21T10:34:12;0.73;;;0.70;;
13386;SDS011;6763;48.524;9.044;2023-11-21T10:36:38;0.50;;;0.50;;
13386;SDS011;6763;48.524;9.044;2023-11-21T10:39:03;0.90;;;0.90;;
13386;SDS011;6763;48.524;9.044;2023-11-21T10:41:28;0.50;;;0.50;;
13386;SDS011;6763;48.524;9.044;2023-11-21T10:43:54;1.20;;;0.50;;
13386;SDS011;6763;48.524;9.044;2023-11-21T10:46:21;0.77;;;0.70;;
13386;SDS011;6763;48.524;9.044;2023-11-21T10:48:51;0.70;;;0.60;;
13386;SDS011;6763;48.524;9.044;2023-11-21T10:51:20;1.07;;;0.60;;
13386;SDS011;6763;48.524;9.044;2023-11-21T10:53:45;0.67;;;0.57;;
13386;SDS011;6763;48.524;9.044;2023-11-21T10:56:11;0.53;;;0.47;;
13386;SDS011;6763;48.524;9.044;2023-11-21T10:58:42;0.47;;;0.47;;
13386;SDS011;6763;48.524;9.044;2023-11-21T11:01:08;1.37;;;0.60;;
13386;SDS011;6763;48.524;9.044;2023-11-21T11:03:36;0.77;;;0.70;;
13386;SDS011;6763;48.524;9.044;2023-11-21T11:06:03;1.37;;;0.70;;
13386;SDS011;6763;48.524;9.044;2023-11-21T11:08:32;0.63;;;0.63;;
13386;SDS011;6763;48.524;9.044;2023-11-21T11:10:59;1.30;;;0.70;;
13386;SDS011;6763;48.524;9.044;2023-11-21T11:13:25;1.27;;;0.70;;
13386;SDS011;6763;48.524;9.044;2023-11-21T11:15:50;0.77;;;0.63;;
13386;SDS011;6763;48.524;9.044;2023-11-21T11:18:21;0.50;;;0.50;;
13386;SDS011;6763;48.524;9.044;2023-11-21T11:20:48;0.60;;;0.60;;
13386;SDS011;6763;48.524;9.044;2023-11-21T11:23:30;0.60;;;0.60;;
13386;SDS011;6763;48.524;9.044;2023-11-21T11:28:57;1.53;;;0.60;;
13386;SDS011;6763;48.524;9.044;2023-11-21T11:31:27;2.27;;;0.80;;
13386;SDS011;6763;48.524;9.044;2023-11-21T11:34:17;3.27;;;0.80;;
13386;SDS011;6763;48.524;9.044;2023-11-21T11:36:55;2.67;;;0.60;;
13386;SDS011;6763;48.524;9.044;2023-11-21T11:42:07;0.60;;;0.60;;
13386;SDS011;6763;48.524;9.044;2023-11-21T11:47:23;0.60;;;0.60;;
13386;SDS011;6763;48.524;9.044;2023-11-21T11:52:41;1.03;;;0.80;;
13386;SDS011;6763;48.524;9.044;2023-11-21T11:55:08;1.27;;;0.77;;
13386;SDS011;6763;48.524;9.044;2023-11-21T11:57:35;0.77;;;0.77;;
13386;SDS011;6763;48.524;9.044;2023-11-21T12:00:11;0.57;;;0.57;;
13386;SDS011;6763;48.524;9.044;2023-11-21T12:03:08;0.73;;;0.73;;
13386;SDS011;6763;48.524;9.044;2023-11-21T12:05:32;1.20;;;0.40;;
13386;SDS011;6763;48.524;9.044;2023-11-21T12:08:04;0.80;;;0.80;;
13386;SDS011;6763;48.524;9.044;2023-11-21T12:10:31;0.93;;;0.50;;
13386;SDS011;6763;48.524;9.044;2023-11-21T12:13:02;0.70;;;0.70;;
13386;SDS011;6763;48.524;9.044;2023-11-21T12:15:28;0.60;;;0.60;;
13386;SDS011;6763;48.524;9.044;2023-11-21T12:17:55;1.00;;;0.77;;
13386;SDS011;6763;48.524;9.044;2023-11-21T12:20:22;0.70;;;0.70;;
13386;SDS011;6763;48.524;9.044;2023-11-21T12:22:52;1.57;;;0.60;;
13386;SDS011;6763;48.524;9.044;2023-11-21T12:25:22;0.50;;;0.50;;
13386;SDS011;6763;48.524;9.044;2023-11-21T12:27:52;0.60;;;0.60;;
13386;SDS011;6763;48.524;9.044;2023-11-21T12:30:19;0.57;;;0.50;;
13386;SDS011;6763;48.524;9.044;2023-11-21T12:32:50;0.50;;;0.50;;
13386;SDS011;6763;48.524;9.044;2023-11-21T12:35:17;0.53;;;0.53;;
13386;SDS011;6763;48.524;9.044;2023-11-21T12:37:47;1.77;;;0.70;;
13386;SDS011;6763;48.524;9.044;2023-11-21T12:40:13;0.83;;;0.60;;
13386;SDS011;6763;48.524;9.044;2023-11-21T12:42:43;0.77;;;0.73;;
13386;SDS011;6763;48.524;9.044;2023-11-21T12:45:19;1.37;;;0.70;;
13386;SDS011;6763;48.524;9.044;2023-11-21T12:47:47;0.70;;;0.60;;
13386;SDS011;6763;48.524;9.044;2023-11-21T12:50:15;0.53;;;0.53;;
13386;SDS011;6763;48.524;9.044;2023-11-21T12:52:47;1.10;;;0.60;;
13386;SDS011;6763;48.524;9.044;2023-11-21T12:55:21;1.20;;;0.87;;
13386;SDS011;6763;48.524;9.044;2023-11-21T12:57:52;0.53;;;0.53;;
13386;SDS011;6763;48.524;9.044;2023-11-21T13:00:33;0.73;;;0.60;;
13386;SDS011;6763;48.524;9.044;2023-11-21T13:03:02;0.97;;;0.83;;
13386;SDS011;6763;48.524;9.044;2023-11-21T13:07:59;1.40;;;0.80;;
13386;SDS011;6763;48.524;9.044;2023-11-21T13:10:32;1.70;;;1.03;;
13386;SDS011;6763;48.524;9.044;2023-11-21T13:13:01;0.90;;;0.90;;
13386;SDS011;6763;48.524;9.044;2023-11-21T13:15:30;0.97;;;0.70;;
13386;SDS011;6763;48.524;9.044;2023-11-21T13:17:57;1.07;;;0.73;;
13386;SDS011;6763;48.524;9.044;2023-11-21T13:20:23;1.43;;;0.80;;
13386;SDS011;6763;48.524;9.044;2023-11-21T13:22:55;0.80;;;0.80;;
13386;SDS011;6763;48.524;9.044;2023-11-21T13:25:26;1.83;;;1.23;;
13386;SDS011;6763;48.524;9.044;2023-11-21T13:27:55;3.77;;;1.53;;
13386;SDS011;6763;48.524;9.044;2023-11-21T13:30:22;1.30;;;1.20;;
13386;SDS011;6763;48.524;9.044;2023-11-21T13:32:52;1.50;;;1.00;;
13386;SDS011;6763;48.524;9.044;2023-11-21T13:35:27;1.07;;;0.97;;
13386;SDS011;6763;48.524;9.044;2023-11-21T13:37:57;1.37;;;0.90;;
13386;SDS011;6763;48.524;9.044;2023-11-21T13:40:30;1.43;;;0.90;;
13386;SDS011;6763;48.524;9.044;2023-11-21T13:42:56;1.30;;;1.00;;
13386;SDS011;6763;48.524;9.044;2023-11-21T13:45:24;0.97;;;0.87;;
13386;SDS011;6763;48.524;9.044;2023-11-21T13:47:51;0.97;;;0.90;;
13386;SDS011;6763;48.524;9.044;2023-11-21T13:50:22;0.83;;;0.80;;
13386;SDS011;6763;48.524;9.044;2023-11-21T13:52:49;1.07;;;0.87;;
13386;SDS011;6763;48.524;9.044;2023-11-21T13:55:19;0.80;;;0.70;;
13386;SDS011;6763;48.524;9.044;2023-11-21T13:57:45;1.03;;;0.80;;
13386;SDS011;6763;48.524;9.044;2023-11-21T14:00:14;1.00;;;0.70;;
13386;SDS011;6763;48.524;9.044;2023-11-21T14:03:00;0.93;;;0.60;;
13386;SDS011;6763;48.524;9.044;2023-11-21T14:05:32;0.43;;;0.43;;
13386;SDS011;6763;48.524;9.044;2023-11-21T14:07:58;0.90;;;0.63;;
13386;SDS011;6763;48.524;9.044;2023-11-21T14:10:30;0.70;;;0.70;;
13386;SDS011;6763;48.524;9.044;2023-11-21T14:13:07;0.63;;;0.63;;
13386;SDS011;6763;48.524;9.044;2023-11-21T14:15:35;0.87;;;0.70;;
13386;SDS011;6763;48.524;9.044;2023-11-21T14:18:06;0.70;;;0.70;;
13386;SDS011;6763;48.524;9.044;2023-11-21T14:20:42;0.60;;;0.60;;
13386;SDS011;6763;48.524;9.044;2023-11-21T14:23:07;0.60;;;0.60;;
13386;SDS011;6763;48.524;9.044;2023-11-21T14:25:36;0.93;;;0.80;;
13386;SDS011;6763;48.524;9.044;2023-11-21T14:28:04;0.90;;;0.90;;
13386;SDS011;6763;48.524;9.044;2023-11-21T14:30:31;0.50;;;0.50;;
13386;SDS011;6763;48.524;9.044;2023-11-21T14:32:58;0.67;;;0.67;;
13386;SDS011;6763;48.524;9.044;2023-11-21T14:35:24;0.50;;;0.50;;
13386;SDS011;6763;48.524;9.044;2023-11-21T14:37:49;0.50;;;0.50;;
13386;SDS011;6763;48.524;9.044;2023-11-21T14:40:15;0.70;;;0.60;;
13386;SDS011;6763;48.524;9.044;2023-11-21T14:42:41;0.60;;;0.47;;
13386;SDS011;6763;48.524;9.044;2023-11-21T14:45:07;0.50;;;0.50;;
13386;SDS011;6763;48.524;9.044;2023-11-21T14:47:34;0.90;;;0.60;;
13386;SDS011;6763;48.524;9.044;2023-11-21T14:50:00;0.50;;;0.50;;
13386;SDS011;6763;48.524;9.044;2023-11-21T14:52:46;0.43;;;0.43;;
13386;SDS011;6763;48.524;9.044;2023-11-21T14:55:20;0.90;;;0.53;;
13386;SDS011;6763;48.524;9.044;2023-11-21T14:57:56;0.70;;;0.57;;
13386;SDS011;6763;48.524;9.044;2023-11-21T15:00:21;1.03;;;0.80;;
13386;SDS011;6763;48.524;9.044;2023-11-21T15:03:10;1.67;;;1.10;;
13386;SDS011;6763;48.524;9.044;2023-11-21T15:05:51;1.47;;;0.93;;
13386;SDS011;6763;48.524;9.044;2023-11-21T15:08:18;1.13;;;0.70;;
13386;SDS011;6763;48.524;9.044;2023-11-21T15:10:52;1.00;;;0.80;;
13386;SDS011;6763;48.524;9.044;2023-11-21T15:13:20;1.07;;;0.80;;
13386;SDS011;6763;48.524;9.044;2023-11-21T15:15:51;0.57;;;0.57;;
13386;SDS011;6763;48.524;9.044;2023-11-21T15:18:19;0.60;;;0.60;;